메인 페이지
METAR-TAF:

METAR-TAF

공항 :

포르드프랑스, 마르티니크

위도: 14-36N, 경도: 061-00W, 고도: 5m

현재 날씨관측

예보는 22분 전, 07:00시(UTC)에 발표되었습니다.
12kt
온도 25°C
습도 79%
기압 1015 hPa
시정 10km 이상
고도 2400ft 상공 구름 조금

METAR: TFFF 210700Z AUTO 10012KT 9999 FEW024 25/21 Q1015

시각: 03:22 (07:22 UTC)

예보

예보는 15 시간 22분 전, 16:00시(UTC)에 발표되었습니다.
예보 대상 시간: 20일 18시부터 21일 18시까지 (UTC)
동남동10kt
시정 10km 이상
고도 3500ft 상공 구름 보통
일시적
20일 18시부터 20일 21시까지 (UTC)
동남동17kt, 순간 최대 풍속 27kt
확률 30% :
일시적
20일 18시부터 20일 24시까지 (UTC)
시정: 4000m
고도 1800ft 상공 구름 보통, 타워링 적운.
고도 2500ft 상공 구름 보통
소나기

TAF: TFFF 201600Z 2018/2118 11010KT 9999 SCT035 TEMPO 2018/2021 11017G27KT PROB30 TEMPO 2018/2024 4000 SHRA SCT018TCU SCT025

4,000개 이상의 공항 관측 자료 및 예보 (METAR 및 TAF 보고).

지도상에서 검색 가능한 기상관측소가 노란 점과 빨간 점으로 표시되어 있습니다.

기상관측소 명을 보려면 표시 위로 마우스를 이동하세요.

날씨 관측과 예보를 보려면 클릭하세요.

지도 변경 : 확대하려면 엑스 표시가 있는 녹색 버튼, 축소하려면 빼기 표시가 있는 녹색 버튼, 다음 페이지의 지도를 보려면 녹색 화살표를 클릭하세요.


METAR-TAF: